createdAt,value
2022-09-30T00:00:17.283Z,94167.19
2022-09-30T00:02:44.158Z,94170.06
2022-09-30T00:05:10.859Z,94165.16
2022-09-30T00:07:37.503Z,94165.03
2022-09-30T00:10:04.963Z,94166.22
2022-09-30T00:12:31.592Z,94180.06
2022-09-30T00:14:58.316Z,94175.59
2022-09-30T00:17:25.005Z,94174.47
2022-09-30T00:19:51.607Z,94171.34
2022-09-30T00:22:18.358Z,94166.69
2022-09-30T00:24:45.010Z,94175.63
2022-09-30T00:27:11.668Z,94188.41
2022-09-30T00:29:38.329Z,94193.09
2022-09-30T00:32:05.029Z,94184.25
2022-09-30T00:34:31.638Z,94194.00
2022-09-30T00:36:58.340Z,94189.00
2022-09-30T00:39:27.309Z,94189.91
2022-09-30T00:41:58.818Z,94185.44
2022-09-30T00:44:44.217Z,94184.53
2022-09-30T00:47:23.047Z,94179.16
2022-09-30T00:49:51.706Z,94197.34
2022-09-30T00:52:19.606Z,94189.91
2022-09-30T00:54:46.887Z,94193.22
2022-09-30T00:57:13.760Z,94196.75
2022-09-30T00:59:47.687Z,94197.44
2022-09-30T01:02:14.837Z,94195.94
2022-09-30T01:04:45.362Z,94209.53
2022-09-30T01:07:14.075Z,94203.13
2022-09-30T01:09:42.722Z,94205.50
2022-09-30T01:12:20.949Z,94205.09
2022-09-30T01:14:50.383Z,94204.22
2022-09-30T01:17:47.594Z,94196.53
2022-09-30T01:20:32.448Z,94207.72
2022-09-30T01:23:23.801Z,94210.09
2022-09-30T01:26:04.330Z,94207.75
2022-09-30T01:28:52.525Z,94210.63
2022-09-30T01:31:31.072Z,94205.66
2022-09-30T01:34:21.664Z,94207.50
2022-09-30T01:37:20.794Z,94208.66
2022-09-30T01:40:05.273Z,94211.63
2022-09-30T01:43:10.116Z,94209.69
2022-09-30T01:45:58.570Z,94210.03
2022-09-30T01:48:30.955Z,94211.53
2022-09-30T01:51:08.685Z,94211.28
2022-09-30T01:53:38.148Z,94210.59
2022-09-30T01:56:35.646Z,94218.47
2022-09-30T01:59:10.352Z,94208.78
2022-09-30T02:01:43.361Z,94208.44
2022-09-30T02:04:18.956Z,94214.63
2022-09-30T02:06:53.399Z,94209.47
2022-09-30T02:09:30.866Z,94209.03
2022-09-30T02:12:03.017Z,94203.69
2022-09-30T02:14:41.600Z,94197.78
2022-09-30T02:17:23.173Z,94202.03
2022-09-30T02:20:10.674Z,94206.84
2022-09-30T02:22:46.593Z,94203.28
2022-09-30T02:25:24.671Z,94209.34
2022-09-30T02:27:58.444Z,94206.25
2022-09-30T02:30:25.387Z,94213.00
2022-09-30T02:33:02.279Z,94214.38
2022-09-30T02:35:46.059Z,94216.22
2022-09-30T02:38:19.303Z,94209.34
2022-09-30T02:40:56.347Z,94213.94
2022-09-30T02:43:23.050Z,94211.06
2022-09-30T02:46:08.977Z,94213.34
2022-09-30T02:48:59.458Z,94208.44
2022-09-30T02:51:43.540Z,94203.19
2022-09-30T02:54:10.094Z,94201.34
2022-09-30T02:56:39.642Z,94213.69
2022-09-30T02:59:06.341Z,94214.84
2022-09-30T03:01:33.051Z,94215.84
2022-09-30T03:04:05.954Z,94222.84
2022-09-30T03:06:34.663Z,94218.16
2022-09-30T03:09:01.745Z,94216.44
2022-09-30T03:11:30.913Z,94217.03
2022-09-30T03:14:06.305Z,94219.41
2022-09-30T03:16:57.797Z,94218.88
2022-09-30T03:19:39.485Z,94223.00
2022-09-30T03:22:21.321Z,94217.25
2022-09-30T03:24:50.904Z,94219.06
2022-09-30T03:27:26.208Z,94226.41
2022-09-30T03:30:04.056Z,94225.38
2022-09-30T03:32:39.054Z,94221.81
2022-09-30T03:35:11.618Z,94213.78
2022-09-30T03:38:10.122Z,94222.63
2022-09-30T03:40:49.229Z,94217.13
2022-09-30T03:43:24.671Z,94219.00
2022-09-30T03:46:10.006Z,94221.31
2022-09-30T03:48:39.595Z,94224.28
2022-09-30T03:51:09.591Z,94223.84
2022-09-30T03:53:41.612Z,94225.09
2022-09-30T03:56:08.239Z,94227.16
2022-09-30T03:58:41.851Z,94230.47
2022-09-30T04:01:17.976Z,94240.94
2022-09-30T04:03:44.984Z,94227.09
2022-09-30T04:06:14.346Z,94231.78
2022-09-30T04:08:41.019Z,94240.31
2022-09-30T04:11:07.622Z,94230.50
2022-09-30T04:13:54.344Z,94228.25
2022-09-30T04:16:21.035Z,94228.41
2022-09-30T04:18:47.881Z,94235.94
2022-09-30T04:21:15.956Z,94234.06
2022-09-30T04:23:43.269Z,94237.13
2022-09-30T04:26:13.335Z,94250.75
2022-09-30T04:28:40.050Z,94244.09
2022-09-30T04:31:07.280Z,94253.13
2022-09-30T04:33:34.305Z,94263.38
2022-09-30T04:36:01.606Z,94261.72
2022-09-30T04:38:28.403Z,94266.50
2022-09-30T04:40:55.295Z,94270.59
2022-09-30T04:43:23.486Z,94275.41
2022-09-30T04:45:52.305Z,94279.66
2022-09-30T04:48:19.984Z,94289.09
2022-09-30T04:50:46.598Z,94280.59
2022-09-30T04:53:13.440Z,94283.38
2022-09-30T04:55:44.573Z,94286.13
2022-09-30T04:58:12.651Z,94278.31
2022-09-30T05:00:39.517Z,94278.56
2022-09-30T05:03:06.213Z,94285.47
2022-09-30T05:05:33.561Z,94289.31
2022-09-30T05:08:02.255Z,94290.00
2022-09-30T05:10:29.941Z,94287.47
2022-09-30T05:12:57.239Z,94289.13
2022-09-30T05:15:25.218Z,94286.66
2022-09-30T05:17:53.335Z,94282.41
2022-09-30T05:20:21.486Z,94286.75
2022-09-30T05:22:54.232Z,94275.75
2022-09-30T05:25:20.896Z,94291.47
2022-09-30T05:27:51.277Z,94290.56
2022-09-30T05:30:18.122Z,94288.69
2022-09-30T05:32:44.753Z,94288.25
2022-09-30T05:35:11.410Z,94288.53
2022-09-30T05:37:38.200Z,94290.50
2022-09-30T05:40:05.329Z,94287.38
2022-09-30T05:42:32.097Z,94295.56
2022-09-30T05:44:58.671Z,94305.59
2022-09-30T05:47:25.262Z,94312.63
2022-09-30T05:49:55.906Z,94314.38
2022-09-30T05:52:22.791Z,94315.06
2022-09-30T05:54:49.394Z,94321.56
2022-09-30T05:57:16.235Z,94324.06
2022-09-30T05:59:43.754Z,94317.28
2022-09-30T06:02:10.900Z,94318.22
2022-09-30T06:04:37.527Z,94322.38
2022-09-30T06:07:08.213Z,94320.03
2022-09-30T06:09:37.086Z,94315.28
2022-09-30T06:12:03.844Z,94310.13
2022-09-30T06:14:30.431Z,94320.22
2022-09-30T06:16:57.080Z,94319.03
2022-09-30T06:19:23.795Z,94321.06
2022-09-30T06:21:50.454Z,94335.34
2022-09-30T06:24:17.055Z,94336.91
2022-09-30T06:26:43.686Z,94331.06
2022-09-30T06:29:10.331Z,94337.66
2022-09-30T06:31:37.580Z,94334.16
2022-09-30T06:34:04.418Z,94340.94
2022-09-30T06:36:31.563Z,94337.63
2022-09-30T06:38:58.159Z,94345.38
2022-09-30T06:41:24.802Z,94351.19
2022-09-30T06:43:51.454Z,94354.78
2022-09-30T06:46:25.167Z,94359.25
2022-09-30T06:49:06.587Z,94357.78
2022-09-30T06:51:37.673Z,94357.44
2022-09-30T06:54:04.536Z,94363.75
2022-09-30T06:56:31.122Z,94360.13
2022-09-30T06:58:57.701Z,94369.53
2022-09-30T07:01:24.373Z,94369.47
2022-09-30T07:03:54.582Z,94365.00
2022-09-30T07:06:21.373Z,94378.09
2022-09-30T07:08:48.018Z,94374.22
2022-09-30T07:11:14.666Z,94367.19
2022-09-30T07:13:42.393Z,94377.72
2022-09-30T07:16:10.354Z,94379.44
2022-09-30T07:18:37.048Z,94382.41
2022-09-30T07:21:03.711Z,94386.13
2022-09-30T07:23:30.530Z,94377.19
2022-09-30T07:26:00.261Z,94384.88
2022-09-30T07:28:29.928Z,94402.91
2022-09-30T07:31:13.783Z,94395.94
2022-09-30T07:33:45.863Z,94405.59
2022-09-30T07:36:14.868Z,94406.97
2022-09-30T07:38:42.776Z,94416.66
2022-09-30T07:41:12.573Z,94414.75
2022-09-30T07:43:42.912Z,94412.53
2022-09-30T07:46:19.151Z,94413.72
2022-09-30T07:48:47.999Z,94414.31
2022-09-30T07:51:21.028Z,94422.63
2022-09-30T07:53:51.228Z,94422.50
2022-09-30T07:56:19.680Z,94427.81
2022-09-30T07:58:46.273Z,94441.25
2022-09-30T08:01:13.412Z,94433.91
2022-09-30T08:03:42.180Z,94439.38
2022-09-30T08:06:13.424Z,94442.06
2022-09-30T08:08:40.055Z,94451.06
2022-09-30T08:11:06.688Z,94452.25
2022-09-30T08:13:33.757Z,94457.72
2022-09-30T08:16:01.310Z,94456.75
2022-09-30T08:18:28.686Z,94458.34
2022-09-30T08:20:56.450Z,94469.72
2022-09-30T08:23:23.422Z,94469.97
2022-09-30T08:25:50.074Z,94481.28
2022-09-30T08:28:16.679Z,94481.16
2022-09-30T08:30:43.688Z,94483.88
2022-09-30T08:33:10.310Z,94491.56
2022-09-30T08:35:36.898Z,94500.03
2022-09-30T08:38:03.564Z,94495.81
2022-09-30T08:40:46.805Z,94500.91
2022-09-30T08:43:39.077Z,94506.34
2022-09-30T08:46:05.680Z,94506.06
2022-09-30T08:49:03.319Z,94513.56
2022-09-30T08:51:39.237Z,94510.75
2022-09-30T08:54:14.174Z,94517.34
2022-09-30T08:56:44.970Z,94516.56
2022-09-30T08:59:36.085Z,94512.31
2022-09-30T09:02:21.037Z,94518.59
2022-09-30T09:04:51.360Z,94513.59
2022-09-30T09:07:57.858Z,94512.84
2022-09-30T09:10:24.431Z,94519.00
2022-09-30T09:13:18.409Z,94519.75
2022-09-30T09:16:02.768Z,94522.97
2022-09-30T09:18:35.381Z,94536.69
2022-09-30T09:21:22.190Z,94534.63
2022-09-30T09:23:53.150Z,94534.78
2022-09-30T09:26:23.851Z,94529.69
2022-09-30T09:29:08.791Z,94533.28
2022-09-30T09:31:35.667Z,94527.94
2022-09-30T09:34:11.093Z,94534.41
2022-09-30T09:37:15.439Z,94528.31
2022-09-30T09:40:11.123Z,94533.44
2022-09-30T09:42:52.735Z,94545.31
2022-09-30T09:45:36.012Z,94531.53
2022-09-30T09:48:07.403Z,94541.06
2022-09-30T09:50:42.267Z,94557.56
2022-09-30T09:53:55.583Z,94564.56
2022-09-30T09:56:32.107Z,94557.59
2022-09-30T09:59:19.822Z,94589.31
2022-09-30T10:01:52.745Z,94564.41
2022-09-30T10:04:26.662Z,94558.47
2022-09-30T10:06:59.495Z,94578.13
2022-09-30T10:09:38.226Z,94584.75
2022-09-30T10:12:07.536Z,94585.81
2022-09-30T10:14:36.567Z,94578.50
2022-09-30T10:17:05.826Z,94579.94
2022-09-30T10:19:35.092Z,94583.91
2022-09-30T10:22:07.961Z,94576.44
2022-09-30T10:24:37.291Z,94573.00
2022-09-30T10:27:04.766Z,94577.81
2022-09-30T10:29:36.089Z,94575.69
2022-09-30T10:32:07.886Z,94563.78
2022-09-30T10:34:41.711Z,94571.69
2022-09-30T10:37:19.589Z,94576.56
2022-09-30T10:39:58.623Z,94579.50
2022-09-30T10:42:28.741Z,94583.72
2022-09-30T10:45:00.237Z,94575.84
2022-09-30T10:47:32.595Z,94582.81
2022-09-30T10:50:14.401Z,94590.28
2022-09-30T10:52:52.820Z,94588.34
2022-09-30T10:55:19.590Z,94590.88
2022-09-30T10:57:48.187Z,94584.50
2022-09-30T11:00:19.789Z,94585.41
2022-09-30T11:03:14.664Z,94581.31
2022-09-30T11:05:45.289Z,94595.53
2022-09-30T11:08:26.866Z,94601.44
2022-09-30T11:11:02.762Z,94595.72
2022-09-30T11:13:55.344Z,94601.94
2022-09-30T11:16:37.126Z,94592.59
2022-09-30T11:19:21.705Z,94592.44
2022-09-30T11:21:59.323Z,94589.16
2022-09-30T11:24:48.168Z,94591.81
2022-09-30T11:27:29.888Z,94601.09
2022-09-30T11:30:13.905Z,94607.53
2022-09-30T11:33:24.616Z,94592.19
2022-09-30T11:36:04.414Z,94615.03
2022-09-30T11:39:07.593Z,94606.72
2022-09-30T11:41:52.423Z,94616.47
2022-09-30T11:44:37.112Z,94617.38
2022-09-30T11:47:03.820Z,94611.06
2022-09-30T11:50:04.920Z,94612.66
2022-09-30T11:52:46.483Z,94614.38
2022-09-30T11:55:39.715Z,94610.41
2022-09-30T11:58:29.033Z,94617.03
2022-09-30T12:01:31.967Z,94608.50
2022-09-30T12:04:24.321Z,94604.63
2022-09-30T12:07:00.168Z,94614.38
2022-09-30T12:09:47.525Z,94612.50
2022-09-30T12:12:18.859Z,94618.81
2022-09-30T12:15:03.460Z,94610.22
2022-09-30T12:17:38.900Z,94609.38
2022-09-30T12:20:14.475Z,94609.84
2022-09-30T12:22:49.726Z,94619.19
2022-09-30T12:25:31.110Z,94615.63
2022-09-30T12:28:13.930Z,94609.38
2022-09-30T12:30:42.621Z,94608.50
2022-09-30T12:33:43.947Z,94614.88
2022-09-30T12:36:35.199Z,94622.03
2022-09-30T12:39:20.290Z,94619.84
2022-09-30T12:42:06.432Z,94615.94
2022-09-30T12:45:09.490Z,94620.81
2022-09-30T12:47:48.460Z,94618.97
2022-09-30T12:50:21.259Z,94614.78
2022-09-30T12:52:49.392Z,94615.91
2022-09-30T12:55:25.850Z,94607.50
2022-09-30T12:57:54.659Z,94614.31
2022-09-30T13:00:31.063Z,94616.13
2022-09-30T13:03:03.764Z,94616.19
2022-09-30T13:05:30.289Z,94617.28
2022-09-30T13:08:05.905Z,94611.59
2022-09-30T13:10:38.575Z,94610.22
2022-09-30T13:13:11.306Z,94613.28
2022-09-30T13:15:44.436Z,94608.47
2022-09-30T13:18:19.999Z,94612.47
2022-09-30T13:20:56.957Z,94613.31
2022-09-30T13:23:44.181Z,94619.75
2022-09-30T13:26:35.044Z,94619.81
2022-09-30T13:29:01.747Z,94616.53
2022-09-30T13:31:48.519Z,94615.00
2022-09-30T13:34:29.359Z,94631.34
2022-09-30T13:37:05.610Z,94629.19
2022-09-30T13:39:48.679Z,94638.88
2022-09-30T13:42:32.635Z,94639.97
2022-09-30T13:45:02.104Z,94642.09
2022-09-30T13:47:49.929Z,94642.16
2022-09-30T13:50:31.576Z,94651.41
2022-09-30T13:53:07.688Z,94651.34
2022-09-30T13:55:43.923Z,94658.16
2022-09-30T13:58:22.317Z,94650.91
2022-09-30T14:01:40.367Z,94650.66
2022-09-30T14:04:43.220Z,94652.56
2022-09-30T14:07:34.627Z,94657.34
2022-09-30T14:10:16.393Z,94667.44
2022-09-30T14:13:07.845Z,94657.53
2022-09-30T14:15:53.337Z,94670.94
2022-09-30T14:18:28.765Z,94668.78
2022-09-30T14:21:01.302Z,94672.06
2022-09-30T14:23:28.883Z,94672.06
2022-09-30T14:26:19.970Z,94665.78
2022-09-30T14:29:05.204Z,94668.09
2022-09-30T14:31:32.537Z,94679.28
2022-09-30T14:34:00.035Z,94677.28
2022-09-30T14:36:26.713Z,94671.97
2022-09-30T14:38:59.455Z,94674.13
2022-09-30T14:41:27.313Z,94679.75
2022-09-30T14:43:59.394Z,94691.25
2022-09-30T14:46:55.801Z,94690.13
2022-09-30T14:49:26.721Z,94698.16
2022-09-30T14:51:53.715Z,94699.19
2022-09-30T14:54:23.997Z,94706.69
2022-09-30T14:56:51.319Z,94708.75
2022-09-30T14:59:34.880Z,94698.47
2022-09-30T15:02:12.725Z,94697.28
2022-09-30T15:04:48.352Z,94706.88
2022-09-30T15:07:16.280Z,94702.06
2022-09-30T15:09:47.971Z,94706.59
2022-09-30T15:12:22.919Z,94698.09
2022-09-30T15:14:58.306Z,94698.06
2022-09-30T15:17:37.097Z,94698.53
2022-09-30T15:20:23.649Z,94695.13
2022-09-30T15:22:55.050Z,94697.56
2022-09-30T15:25:23.010Z,94705.78
2022-09-30T15:27:50.943Z,94701.53
2022-09-30T15:30:17.524Z,94708.72
2022-09-30T15:32:46.375Z,94709.53
2022-09-30T15:35:18.835Z,94717.25
2022-09-30T15:37:45.616Z,94723.66
2022-09-30T15:40:19.323Z,94714.63
2022-09-30T15:42:57.073Z,94718.88
2022-09-30T15:45:36.512Z,94731.13
2022-09-30T15:48:27.571Z,94725.28
2022-09-30T15:50:56.725Z,94737.75
2022-09-30T15:53:45.066Z,94735.34
2022-09-30T15:56:33.100Z,94737.66
2022-09-30T15:59:12.312Z,94744.19
2022-09-30T16:01:41.010Z,94733.84
2022-09-30T16:04:16.378Z,94738.56
2022-09-30T16:07:09.282Z,94749.44
2022-09-30T16:09:39.550Z,94751.28
2022-09-30T16:12:17.884Z,94756.25
2022-09-30T16:15:20.036Z,94750.81
2022-09-30T16:17:49.664Z,94746.78
2022-09-30T16:20:16.223Z,94755.50
2022-09-30T16:22:42.777Z,94750.28
2022-09-30T16:25:22.799Z,94757.22
2022-09-30T16:28:01.797Z,94759.06
2022-09-30T16:30:30.960Z,94764.00
2022-09-30T16:33:04.200Z,94766.91
2022-09-30T16:35:30.974Z,94769.34
2022-09-30T16:38:05.796Z,94779.91
2022-09-30T16:40:34.021Z,94770.03
2022-09-30T16:43:03.219Z,94780.78
2022-09-30T16:45:33.158Z,94776.03
2022-09-30T16:48:02.048Z,94778.47
2022-09-30T16:50:43.803Z,94779.88
2022-09-30T16:53:10.715Z,94780.91
2022-09-30T16:55:37.780Z,94786.06
2022-09-30T16:58:04.418Z,94786.03
2022-09-30T17:00:31.660Z,94785.59
2022-09-30T17:02:58.946Z,94785.53
2022-09-30T17:05:26.793Z,94792.09
2022-09-30T17:07:59.326Z,94794.16
2022-09-30T17:10:29.285Z,94798.66
2022-09-30T17:13:00.489Z,94798.50
2022-09-30T17:15:29.001Z,94796.78
2022-09-30T17:17:56.155Z,94800.13
2022-09-30T17:20:23.617Z,94806.81
2022-09-30T17:22:50.819Z,94822.91
2022-09-30T17:25:18.609Z,94812.47
2022-09-30T17:27:49.390Z,94819.47
2022-09-30T17:30:17.659Z,94818.38
2022-09-30T17:33:08.126Z,94820.47
2022-09-30T17:35:34.716Z,94813.94
2022-09-30T17:38:01.471Z,94813.81
2022-09-30T17:40:28.066Z,94815.97
2022-09-30T17:42:58.123Z,94816.72
2022-09-30T17:45:25.495Z,94818.78
2022-09-30T17:47:54.798Z,94823.03
2022-09-30T17:50:21.396Z,94827.09
2022-09-30T17:52:47.998Z,94826.81
2022-09-30T17:55:14.686Z,94827.50
2022-09-30T17:57:41.547Z,94836.31
2022-09-30T18:00:08.778Z,94843.94
2022-09-30T18:02:35.428Z,94842.97
2022-09-30T18:05:02.053Z,94850.34
2022-09-30T18:07:28.705Z,94854.41
2022-09-30T18:09:55.329Z,94854.97
2022-09-30T18:12:21.908Z,94868.25
2022-09-30T18:14:48.512Z,94868.38
2022-09-30T18:17:15.161Z,94876.50
2022-09-30T18:19:41.763Z,94872.59
2022-09-30T18:22:08.496Z,94886.16
2022-09-30T18:24:35.182Z,94886.91
2022-09-30T18:27:01.876Z,94892.88
2022-09-30T18:29:28.689Z,94887.81
2022-09-30T18:31:55.349Z,94894.69
2022-09-30T18:34:22.143Z,94904.78
2022-09-30T18:36:51.945Z,94912.47
2022-09-30T18:39:19.557Z,94919.56
2022-09-30T18:41:46.909Z,94919.91
2022-09-30T18:44:15.520Z,94921.22
2022-09-30T18:46:42.198Z,94925.19
2022-09-30T18:49:09.604Z,94922.09
2022-09-30T18:51:36.451Z,94929.69
2022-09-30T18:54:03.384Z,94926.69
2022-09-30T18:56:32.105Z,94936.38
2022-09-30T18:59:04.008Z,94934.09
2022-09-30T19:01:31.868Z,94932.78
2022-09-30T19:03:58.898Z,94928.47
2022-09-30T19:06:25.548Z,94934.88
2022-09-30T19:08:52.287Z,94936.63
2022-09-30T19:11:18.941Z,94938.47
2022-09-30T19:13:47.278Z,94935.94
2022-09-30T19:16:14.610Z,94936.25
2022-09-30T19:18:41.639Z,94938.66
2022-09-30T19:21:10.770Z,94943.88
2022-09-30T19:23:38.512Z,94945.00
2022-09-30T19:26:06.330Z,94942.34
2022-09-30T19:28:33.524Z,94942.94
2022-09-30T19:31:07.332Z,94944.25
2022-09-30T19:33:36.307Z,94944.66
2022-09-30T19:36:14.385Z,94950.94
2022-09-30T19:38:46.058Z,94950.66
2022-09-30T19:41:15.355Z,94958.81
2022-09-30T19:43:50.560Z,94967.34
2022-09-30T19:46:18.191Z,94964.97
2022-09-30T19:48:44.896Z,94956.75
2022-09-30T19:51:15.249Z,94962.50
2022-09-30T19:53:48.469Z,94964.00
2022-09-30T19:56:22.288Z,94970.50
2022-09-30T19:58:53.629Z,94969.75
2022-09-30T20:01:23.477Z,94968.72
2022-09-30T20:03:52.489Z,94972.16
2022-09-30T20:06:19.360Z,94966.78
2022-09-30T20:08:52.089Z,94962.72
2022-09-30T20:11:21.220Z,94970.22
2022-09-30T20:13:53.258Z,94965.56
2022-09-30T20:16:19.883Z,94969.53
2022-09-30T20:18:47.545Z,94982.38
2022-09-30T20:21:16.278Z,94988.19
2022-09-30T20:23:45.950Z,94975.66
2022-09-30T20:26:15.346Z,94974.75
2022-09-30T20:28:42.390Z,94975.50
2022-09-30T20:31:14.207Z,94980.63
2022-09-30T20:33:42.184Z,94985.19
2022-09-30T20:36:10.918Z,94990.97
2022-09-30T20:38:37.676Z,94992.84
2022-09-30T20:41:04.858Z,95007.88
2022-09-30T20:43:33.286Z,95009.41
2022-09-30T20:46:02.353Z,95013.84
2022-09-30T20:48:34.109Z,95010.50
2022-09-30T20:51:05.526Z,95006.69
2022-09-30T20:53:32.144Z,95021.09
2022-09-30T20:56:00.810Z,95020.50
2022-09-30T20:58:27.583Z,95025.97
2022-09-30T21:01:02.149Z,95027.44
2022-09-30T21:03:29.174Z,95028.56
2022-09-30T21:05:56.152Z,95033.72
2022-09-30T21:08:23.465Z,95039.47
2022-09-30T21:10:50.342Z,95039.75
2022-09-30T21:13:17.372Z,95036.88
2022-09-30T21:15:45.588Z,95037.44
2022-09-30T21:18:12.175Z,95040.38
2022-09-30T21:20:38.752Z,95041.50
2022-09-30T21:23:05.318Z,95038.81
2022-09-30T21:25:32.296Z,95043.50
2022-09-30T21:27:58.970Z,95035.44
2022-09-30T21:30:25.567Z,95041.38
2022-09-30T21:32:53.744Z,95040.66
2022-09-30T21:35:20.399Z,95055.84
2022-09-30T21:37:48.312Z,95051.53
2022-09-30T21:40:14.913Z,95063.75
2022-09-30T21:42:41.488Z,95075.25
2022-09-30T21:45:08.628Z,95085.13
2022-09-30T21:47:35.662Z,95090.34
2022-09-30T21:50:02.323Z,95089.06
2022-09-30T21:52:32.691Z,95087.09
2022-09-30T21:54:59.606Z,95104.69
2022-09-30T21:57:26.208Z,95112.09
2022-09-30T21:59:52.794Z,95122.72
2022-09-30T22:02:19.507Z,95123.16
2022-09-30T22:04:46.156Z,95129.91
2022-09-30T22:07:12.749Z,95122.06
2022-09-30T22:09:39.785Z,95135.84
2022-09-30T22:12:06.482Z,95128.78
2022-09-30T22:14:33.142Z,95131.31
2022-09-30T22:16:59.931Z,95127.50
2022-09-30T22:19:26.567Z,95119.34
2022-09-30T22:21:53.385Z,95114.69
2022-09-30T22:24:22.086Z,95117.94
2022-09-30T22:26:48.820Z,95114.22
2022-09-30T22:29:15.643Z,95107.81
2022-09-30T22:31:42.320Z,95102.91
2022-09-30T22:34:13.537Z,95115.63
2022-09-30T22:36:40.272Z,95108.06
2022-09-30T22:39:06.875Z,95104.00
2022-09-30T22:41:33.811Z,95101.47
2022-09-30T22:44:00.823Z,95102.03
2022-09-30T22:46:27.433Z,95097.16
2022-09-30T22:48:54.009Z,95099.78
2022-09-30T22:51:20.612Z,95103.38
2022-09-30T22:53:47.201Z,95098.16
2022-09-30T22:56:15.431Z,95093.31
2022-09-30T22:58:42.046Z,95099.72
2022-09-30T23:01:08.657Z,95092.22
2022-09-30T23:03:35.261Z,95078.63
2022-09-30T23:06:03.825Z,95084.06
2022-09-30T23:08:32.537Z,95084.66
2022-09-30T23:11:00.178Z,95088.31
2022-09-30T23:13:30.412Z,95093.94
2022-09-30T23:15:58.121Z,95085.88
2022-09-30T23:18:25.241Z,95096.25
2022-09-30T23:20:55.544Z,95100.72
2022-09-30T23:23:22.177Z,95099.91
2022-09-30T23:25:48.759Z,95099.50
2022-09-30T23:28:15.414Z,95094.31
2022-09-30T23:30:42.049Z,95105.78
2022-09-30T23:33:11.493Z,95123.63
2022-09-30T23:35:38.059Z,95128.28
2022-09-30T23:38:04.681Z,95127.34
2022-09-30T23:40:31.292Z,95126.69
2022-09-30T23:42:57.854Z,95129.53
2022-09-30T23:45:24.842Z,95131.66
2022-09-30T23:47:51.504Z,95125.59
2022-09-30T23:50:18.133Z,95124.16
2022-09-30T23:52:44.722Z,95134.19
2022-09-30T23:55:11.309Z,95132.63
2022-09-30T23:57:38.014Z,95130.13
